Time;durP1;ratioP1;P1;durP2;ratioP2;P2;SDS_P1;SDS_P2;PMS_P1;PMS_P2;Temp;Humidity;BMP_temperature;BMP_pressure;BME280_temperature;BME280_humidity;BME280_pressure;Samples;Min_cycle;Max_cycle;Signal;HPM_P1;HPM_P2
2021/01/09 00:02:09;;;;;;;21.73;14.05;;;;;;;2.19;92.56;99922.18;1721677;83;21364;-76
2021/01/09 00:05:19;;;;;;;18.07;12.80;;;;;;;2.14;92.38;99923.08;1721382;83;21346;-76
2021/01/09 00:08:25;;;;;;;19.10;12.82;;;;;;;2.08;92.24;99918.21;1721778;83;21174;-76
2021/01/09 00:11:38;;;;;;;25.65;12.40;;;;;;;2.04;92.18;99917.11;1721305;83;21897;-76
2021/01/09 00:14:43;;;;;;;18.50;11.70;;;;;;;2.03;92.21;99915.91;1722838;83;21364;-75
2021/01/09 00:17:49;;;;;;;16.93;11.88;;;;;;;2.03;92.24;99921.30;1771080;81;21170;-75
2021/01/09 00:20:55;;;;;;;18.92;13.53;;;;;;;2.02;92.23;99920.45;1762853;81;21367;-76
2021/01/09 00:24:01;;;;;;;22.40;14.28;;;;;;;2.02;92.17;99912.36;1771379;81;21296;-76
2021/01/09 00:27:06;;;;;;;22.15;16.23;;;;;;;2.05;92.16;99914.77;1769906;81;21319;-75
2021/01/09 00:30:12;;;;;;;25.02;14.63;;;;;;;2.06;92.05;99906.18;1771118;81;21224;-76
2021/01/09 00:33:17;;;;;;;28.35;15.65;;;;;;;2.07;91.98;99893.55;1771400;81;21184;-76
2021/01/09 00:36:23;;;;;;;28.45;16.25;;;;;;;2.07;92.02;99883.64;1769751;79;21355;-76
2021/01/09 00:39:29;;;;;;;24.07;14.93;;;;;;;2.11;92.05;99878.31;1771079;81;21178;-76
2021/01/09 00:42:35;;;;;;;25.62;15.15;;;;;;;2.13;91.88;99876.84;1770475;81;21315;-77
2021/01/09 00:45:41;;;;;;;33.83;18.30;;;;;;;2.15;91.79;99880.25;1770911;81;21345;-75
2021/01/09 00:48:47;;;;;;;23.87;16.80;;;;;;;2.14;91.61;99860.52;1771243;81;21339;-76
2021/01/09 00:51:54;;;;;;;26.62;16.23;;;;;;;2.16;91.58;99855.83;1771165;81;21299;-76
2021/01/09 00:55:00;;;;;;;24.63;15.93;;;;;;;2.21;91.64;99852.27;1769767;81;21324;-76
2021/01/09 00:58:05;;;;;;;22.48;15.75;;;;;;;2.26;91.62;99845.97;1770290;81;21776;-76
2021/01/09 01:01:10;;;;;;;23.65;15.23;;;;;;;2.30;91.44;99836.58;1771069;81;21752;-76
2021/01/09 01:08:35;;;;;;;25.88;16.25;;;;;;;2.33;90.98;99820.63;1769636;81;21352;-77
2021/01/09 01:11:40;;;;;;;28.45;16.52;;;;;;;2.37;90.84;99815.81;1771028;81;21293;-76
2021/01/09 01:14:47;;;;;;;28.47;17.42;;;;;;;2.39;90.68;99817.87;1771130;81;21276;-76
2021/01/09 01:17:55;;;;;;;26.27;16.37;;;;;;;2.41;90.54;99807.81;1778058;80;21157;-76
2021/01/09 01:21:02;;;;;;;25.85;17.17;;;;;;;2.41;90.37;99803.27;1779385;80;21823;-76
2021/01/09 01:24:08;;;;;;;26.07;16.60;;;;;;;2.37;90.03;99803.17;1779412;80;21296;-76
2021/01/09 01:27:14;;;;;;;27.40;16.02;;;;;;;2.28;89.71;99803.48;1778643;80;21260;-76
2021/01/09 01:30:19;;;;;;;28.70;16.27;;;;;;;2.25;89.96;99801.55;1779352;80;21300;-75
2021/01/09 01:33:27;;;;;;;24.70;16.42;;;;;;;2.24;90.20;99800.70;1779326;80;21248;-76
2021/01/09 01:36:33;;;;;;;26.20;17.82;;;;;;;2.26;90.35;99793.34;1779291;80;21846;-76
2021/01/09 01:39:39;;;;;;;24.35;16.77;;;;;;;2.26;90.37;99793.34;1779399;80;21283;-77
2021/01/09 01:42:44;;;;;;;27.10;17.98;;;;;;;2.27;90.34;99795.04;1779287;80;21483;-76
2021/01/09 01:45:51;;;;;;;28.38;18.27;;;;;;;2.28;90.31;99791.34;1779362;80;21347;-75
2021/01/09 01:48:57;;;;;;;27.52;17.87;;;;;;;2.28;90.26;99805.34;1779383;80;21236;-76
2021/01/09 01:52:05;;;;;;;28.75;17.65;;;;;;;2.26;90.31;99800.09;1779439;80;21335;-76
2021/01/09 01:55:13;;;;;;;25.97;16.15;;;;;;;2.27;90.35;99797.73;1779423;80;21300;-76
2021/01/09 01:58:19;;;;;;;27.13;17.45;;;;;;;2.30;90.38;99793.40;1778248;80;21379;-76
2021/01/09 02:01:25;;;;;;;25.60;17.90;;;;;;;2.30;90.29;99779.05;1779288;80;21292;-76
2021/01/09 02:04:30;;;;;;;30.08;18.90;;;;;;;2.28;90.23;99768.41;1779398;80;21280;-76
2021/01/09 02:07:41;;;;;;;29.30;17.80;;;;;;;2.29;90.20;99763.36;1778903;80;21365;-76
2021/01/09 02:10:49;;;;;;;27.05;17.82;;;;;;;2.31;90.16;99768.64;1779497;80;21291;-76
2021/01/09 02:13:59;;;;;;;30.62;18.15;;;;;;;2.30;90.16;99779.91;1778937;80;21366;-76
2021/01/09 02:17:04;;;;;;;23.90;17.40;;;;;;;2.29;90.12;99789.00;1774640;80;21323;-76
2021/01/09 02:20:10;;;;;;;30.05;20.10;;;;;;;2.27;89.97;99783.39;1769733;81;21287;-76
2021/01/09 02:23:14;;;;;;;30.23;19.90;;;;;;;2.21;89.96;99779.41;1762695;81;21228;-77
2021/01/09 02:26:20;;;;;;;33.83;20.20;;;;;;;2.15;90.02;99762.88;1771222;81;21357;-76
2021/01/09 02:29:26;;;;;;;27.85;18.85;;;;;;;2.10;90.16;99765.98;1770577;81;21327;-76
2021/01/09 02:32:36;;;;;;;34.15;22.20;;;;;;;2.06;90.32;99759.15;1771113;81;21757;-75
2021/01/09 02:35:42;;;;;;;34.13;22.02;;;;;;;2.02;90.42;99785.56;1770246;79;21860;-76
2021/01/09 02:38:50;;;;;;;38.30;22.10;;;;;;;2.00;90.60;99786.67;1770229;81;21304;-76
2021/01/09 02:41:55;;;;;;;33.92;21.77;;;;;;;1.98;90.74;99788.17;1769713;81;21915;-76
2021/01/09 02:45:01;;;;;;;35.90;22.07;;;;;;;1.95;90.88;99790.27;1770290;81;21313;-76
2021/01/09 02:48:07;;;;;;;32.70;21.60;;;;;;;1.92;90.96;99794.57;1770658;81;21185;-76
2021/01/09 02:51:14;;;;;;;40.43;25.55;;;;;;;1.85;91.02;99788.88;1772205;81;21142;-76
2021/01/09 02:54:20;;;;;;;41.75;24.67;;;;;;;1.81;91.12;99793.31;1771582;81;21832;-76
2021/01/09 02:57:26;;;;;;;42.48;25.88;;;;;;;1.76;91.24;99793.71;1771184;81;21285;-76
2021/01/09 03:00:33;;;;;;;42.55;25.15;;;;;;;1.70;91.40;99785.66;1769447;81;21244;-76
2021/01/09 03:03:38;;;;;;;49.05;30.15;;;;;;;1.67;91.50;99769.75;1771037;81;21315;-76
2021/01/09 03:06:44;;;;;;;46.77;26.60;;;;;;;1.63;91.55;99775.03;1770526;81;21354;-76
2021/01/09 03:09:49;;;;;;;46.10;26.85;;;;;;;1.58;91.50;99769.69;1770783;81;21343;-75
2021/01/09 03:12:55;;;;;;;43.13;27.85;;;;;;;1.54;91.59;99771.78;1770930;81;21304;-75
2021/01/09 03:16:01;;;;;;;44.50;27.75;;;;;;;1.49;91.61;99780.76;1769733;81;21371;-76
2021/01/09 03:19:08;;;;;;;45.75;29.02;;;;;;;1.45;91.69;99780.66;1770510;80;21323;-76
2021/01/09 03:22:15;;;;;;;37.85;25.60;;;;;;;1.42;91.78;99803.84;1771016;81;21181;-76
2021/01/09 03:25:21;;;;;;;35.17;23.62;;;;;;;1.37;91.78;99799.34;1769614;81;21296;-76
2021/01/09 03:28:27;;;;;;;35.75;23.27;;;;;;;1.33;91.81;99790.66;1770878;81;21213;-75
2021/01/09 03:31:36;;;;;;;36.48;24.43;;;;;;;1.27;91.84;99778.56;1769904;81;21335;-76
2021/01/09 03:34:43;;;;;;;40.25;25.43;;;;;;;1.27;92.06;99779.03;1769841;79;21209;-76
2021/01/09 03:37:49;;;;;;;36.58;24.72;;;;;;;1.28;92.18;99778.06;1771272;81;21340;-76
2021/01/09 03:40:54;;;;;;;37.25;25.68;;;;;;;1.27;92.28;99770.48;1771319;81;21289;-76
2021/01/09 03:44:00;;;;;;;38.78;26.27;;;;;;;1.28;92.28;99773.53;1771226;81;21797;-75
2021/01/09 03:47:07;;;;;;;34.55;24.45;;;;;;;1.25;92.24;99782.36;1771447;81;21295;-75
2021/01/09 03:50:13;;;;;;;34.58;23.80;;;;;;;1.23;92.22;99786.54;1769818;81;21408;-75
2021/01/09 03:53:18;;;;;;;43.60;27.82;;;;;;;1.22;92.23;99783.48;1771432;81;21378;-76
2021/01/09 03:56:24;;;;;;;37.85;23.87;;;;;;;1.22;92.33;99779.91;1771092;81;21225;-76
2021/01/09 03:59:30;;;;;;;38.50;25.90;;;;;;;1.20;92.35;99782.74;1770456;81;21819;-75
2021/01/09 04:02:36;;;;;;;44.80;27.90;;;;;;;1.19;92.39;99775.66;1771252;81;21225;-75
2021/01/09 04:05:41;;;;;;;43.40;28.20;;;;;;;1.20;92.44;99778.70;1771198;81;21304;-76
2021/01/09 04:08:47;;;;;;;46.40;30.08;;;;;;;1.21;92.46;99771.47;1770971;81;21323;-75
2021/01/09 04:11:52;;;;;;;54.27;32.70;;;;;;;1.19;92.44;99762.19;1769834;81;21284;-76
2021/01/09 04:14:58;;;;;;;43.63;29.55;;;;;;;1.17;92.47;99762.78;1771247;81;21233;-75
2021/01/09 04:18:04;;;;;;;53.13;30.72;;;;;;;1.15;92.47;99774.20;1771225;81;21816;-75
2021/01/09 04:21:10;;;;;;;48.85;28.98;;;;;;;1.10;92.48;99775.58;1779441;80;21292;-75
2021/01/09 04:24:16;;;;;;;46.42;28.42;;;;;;;1.04;92.59;99771.56;1779416;80;21287;-75
2021/01/09 04:27:15;;;;;;;43.75;28.25;;;;;;;1.00;92.73;99764.72;1779470;80;21287;-76
2021/01/09 04:30:22;;;;;;;48.48;28.30;;;;;;;0.96;92.92;99762.77;1777703;80;21221;-76
2021/01/09 04:33:28;;;;;;;48.52;27.82;;;;;;;0.92;93.05;99773.43;1779473;80;21189;-75
2021/01/09 04:36:33;;;;;;;43.38;26.40;;;;;;;0.89;93.21;99768.29;1779145;80;21871;-76
2021/01/09 04:39:38;;;;;;;40.67;24.95;;;;;;;0.87;93.46;99759.99;1778636;80;21347;-75
2021/01/09 04:42:44;;;;;;;44.33;25.37;;;;;;;0.88;93.66;99754.97;1779115;80;21359;-76
2021/01/09 04:45:52;;;;;;;46.40;29.37;;;;;;;0.89;93.86;99757.52;1779210;80;21312;-76
2021/01/09 04:48:59;;;;;;;38.90;24.60;;;;;;;0.90;93.96;99753.02;1746050;80;21307;-75
2021/01/09 04:52:05;;;;;;;41.88;25.72;;;;;;;0.90;93.99;99750.33;1779338;80;21312;-75
2021/01/09 04:55:11;;;;;;;44.50;24.98;;;;;;;0.88;94.01;99745.05;1777789;80;21209;-75
2021/01/09 04:58:17;;;;;;;42.20;26.85;;;;;;;0.90;94.07;99756.56;1777763;80;21287;-75
2021/01/09 05:01:23;;;;;;;42.05;25.88;;;;;;;0.88;94.12;99776.50;1764104;80;21346;-76
2021/01/09 05:04:30;;;;;;;38.10;24.40;;;;;;;0.85;94.11;99788.87;1763209;80;21732;-74
2021/01/09 05:07:35;;;;;;;37.60;24.23;;;;;;;0.80;94.17;99774.47;1778109;80;21219;-76
2021/01/09 05:10:44;;;;;;;34.00;23.55;;;;;;;0.78;94.31;99768.83;1778547;80;21375;-76
2021/01/09 05:13:51;;;;;;;37.28;24.70;;;;;;;0.79;94.47;99785.34;1777993;80;21287;-76
2021/01/09 05:16:58;;;;;;;33.80;20.55;;;;;;;0.80;94.61;99796.01;1778282;80;21307;-76
2021/01/09 05:20:04;;;;;;;38.05;26.00;;;;;;;0.80;94.72;99799.16;1776114;80;21371;-76
2021/01/09 05:23:08;;;;;;;45.30;28.95;;;;;;;0.79;94.76;99809.58;1771145;81;21182;-75
2021/01/09 05:26:15;;;;;;;45.60;28.87;;;;;;;0.78;94.80;99814.60;1771260;81;21744;-75
2021/01/09 05:29:23;;;;;;;38.78;26.45;;;;;;;0.80;94.88;99812.63;1743860;81;21193;-75
2021/01/09 05:32:28;;;;;;;48.80;32.15;;;;;;;0.80;94.92;99813.97;1770523;81;21324;-76
2021/01/09 05:35:37;;;;;;;47.45;32.10;;;;;;;0.81;94.97;99822.44;1771915;79;21225;-76
2021/01/09 05:38:44;;;;;;;48.63;32.98;;;;;;;0.80;94.96;99822.94;1771241;81;21263;-76
2021/01/09 05:41:50;;;;;;;44.50;30.25;;;;;;;0.77;94.90;99808.36;1769925;81;21292;-76
2021/01/09 05:44:56;;;;;;;47.95;32.05;;;;;;;0.79;94.89;99810.92;1771149;81;21181;-76
2021/01/09 05:48:01;;;;;;;53.02;33.67;;;;;;;0.79;94.90;99818.50;1762063;81;21240;-75
2021/01/09 05:51:10;;;;;;;47.35;32.00;;;;;;;0.76;94.87;99827.70;1770948;81;21197;-76
2021/01/09 05:54:17;;;;;;;48.57;29.47;;;;;;;0.74;94.83;99824.27;1771432;81;21832;-76
2021/01/09 05:57:24;;;;;;;42.43;27.07;;;;;;;0.74;94.82;99830.14;1763315;81;21891;-76
2021/01/09 06:00:32;;;;;;;44.27;29.02;;;;;;;0.76;94.86;99841.66;1771060;81;21836;-75
2021/01/09 06:03:55;;;;;;;54.70;32.35;;;;;;;0.78;94.89;99861.72;1770684;81;21720;-76
2021/01/09 06:07:17;;;;;;;44.98;29.48;;;;;;;0.76;94.82;99862.70;1769615;81;21287;-76
2021/01/09 06:10:23;;;;;;;45.20;28.92;;;;;;;0.74;94.74;99865.14;1769953;81;21327;-76
2021/01/09 06:13:29;;;;;;;52.90;30.25;;;;;;;0.73;94.74;99862.09;1763031;81;21363;-76
2021/01/09 06:16:43;;;;;;;53.42;33.28;;;;;;;0.72;94.75;99861.73;1771260;81;21288;-76
2021/01/09 06:19:52;;;;;;;44.80;27.67;;;;;;;0.73;94.82;99862.94;1769901;81;21249;-76
2021/01/09 06:22:58;;;;;;;46.35;27.65;;;;;;;0.75;94.91;99883.88;1771401;81;21284;-76
2021/01/09 06:26:04;;;;;;;53.55;31.02;;;;;;;0.76;94.89;99879.35;1769849;81;21351;-75
2021/01/09 06:29:23;;;;;;;43.92;27.77;;;;;;;0.77;94.84;99882.41;1769879;81;21296;-76
2021/01/09 06:32:29;;;;;;;45.25;27.70;;;;;;;0.75;94.80;99898.69;1769974;81;21213;-76
2021/01/09 06:35:35;;;;;;;45.65;27.90;;;;;;;0.72;94.72;99909.70;1770296;79;21323;-76
2021/01/09 06:38:41;;;;;;;47.08;27.35;;;;;;;0.72;94.74;99906.15;1771224;81;21296;-76
2021/01/09 06:41:47;;;;;;;44.20;27.45;;;;;;;0.69;94.76;99893.78;1770462;81;21708;-76
2021/01/09 06:44:59;;;;;;;47.15;29.18;;;;;;;0.68;94.80;99896.11;1771400;81;21800;-76
2021/01/09 06:48:06;;;;;;;46.53;28.12;;;;;;;0.67;94.81;99898.45;1769989;81;21323;-75
2021/01/09 06:51:14;;;;;;;48.85;29.02;;;;;;;0.66;94.87;99903.92;1761541;81;21319;-76
2021/01/09 06:54:26;;;;;;;45.23;28.62;;;;;;;0.65;94.87;99904.91;1769880;81;21300;-76
2021/01/09 06:57:32;;;;;;;47.48;29.50;;;;;;;0.66;94.88;99891.35;1771269;81;21717;-76
2021/01/09 07:00:37;;;;;;;44.95;28.17;;;;;;;0.68;94.89;99917.65;1771291;81;21181;-77
2021/01/09 07:03:48;;;;;;;44.25;27.50;;;;;;;0.68;94.81;99889.38;1770797;81;21316;-76
2021/01/09 07:07:06;;;;;;;41.70;26.30;;;;;;;0.70;94.79;99883.38;1771401;81;21725;-76
2021/01/09 07:10:31;;;;;;;44.18;26.68;;;;;;;0.72;94.73;99894.89;1771295;81;21269;-77
2021/01/09 07:13:36;;;;;;;44.60;26.77;;;;;;;0.74;94.68;99870.53;1771287;81;21288;-76
2021/01/09 07:16:42;;;;;;;41.53;26.42;;;;;;;0.76;94.53;99859.16;1771349;81;21205;-76
2021/01/09 07:19:49;;;;;;;45.92;27.32;;;;;;;0.75;94.40;99856.96;1761838;81;21768;-77
2021/01/09 07:22:58;;;;;;;47.25;29.02;;;;;;;0.74;94.27;99860.61;1769933;80;21351;-77
2021/01/09 07:26:03;;;;;;;41.88;27.37;;;;;;;0.77;94.22;99885.09;1771309;81;21903;-76
2021/01/09 07:29:13;;;;;;;50.60;28.27;;;;;;;0.77;94.05;99893.17;1771297;81;21299;-76
2021/01/09 07:32:18;;;;;;;49.88;28.60;;;;;;;0.74;93.86;99894.26;1762424;81;21370;-77
2021/01/09 07:35:36;;;;;;;48.23;29.42;;;;;;;0.77;93.77;99883.75;1769925;79;21304;-76
2021/01/09 07:38:42;;;;;;;53.08;30.05;;;;;;;0.80;93.68;99890.24;1771506;81;21291;-75
2021/01/09 07:41:46;;;;;;;45.88;28.20;;;;;;;0.81;93.55;99871.75;1763785;81;21260;-76
2021/01/09 07:45:15;;;;;;;46.92;28.30;;;;;;;0.83;93.47;99887.77;1769988;81;21304;-76
2021/01/09 07:48:28;;;;;;;80.05;42.27;;;;;;;0.87;93.40;99882.51;1771515;81;21831;-76
2021/01/09 07:51:56;;;;;;;51.40;31.23;;;;;;;0.89;93.25;99872.45;1769692;81;21327;-77
2021/01/09 07:55:02;;;;;;;49.03;30.60;;;;;;;0.94;93.22;99893.13;1767369;81;21296;-76
2021/01/09 07:58:08;;;;;;;50.95;29.80;;;;;;;0.98;92.97;99926.91;1769770;81;21300;-76
2021/01/09 08:01:15;;;;;;;42.38;27.52;;;;;;;0.97;92.61;99918.48;1771294;81;21363;-76
2021/01/09 08:04:20;;;;;;;51.25;32.10;;;;;;;0.96;92.39;99915.42;1771145;81;21277;-77
2021/01/09 08:07:26;;;;;;;50.40;30.25;;;;;;;0.96;92.21;99901.47;1769918;81;21588;-76
2021/01/09 08:10:42;;;;;;;45.38;29.25;;;;;;;0.99;92.01;99908.45;1771290;81;21288;-76
2021/01/09 08:13:49;;;;;;;44.88;28.62;;;;;;;1.01;91.61;99926.18;1769921;81;21197;-76
2021/01/09 08:16:55;;;;;;;52.58;31.12;;;;;;;1.04;91.27;99934.52;1769791;81;21304;-76
2021/01/09 08:20:02;;;;;;;48.55;30.02;;;;;;;1.05;90.93;99931.33;1770228;81;21315;-77
2021/01/09 08:23:11;;;;;;;47.15;29.42;;;;;;;1.05;90.69;99903.05;1774211;80;21361;-76
2021/01/09 08:26:19;;;;;;;54.38;31.73;;;;;;;1.08;90.57;99905.47;1785183;80;21168;-76
2021/01/09 08:29:24;;;;;;;54.67;31.90;;;;;;;1.08;90.38;99918.45;1784887;80;21303;-77
2021/01/09 08:32:33;;;;;;;56.63;33.33;;;;;;;1.08;90.25;99918.45;1784674;80;21252;-76
2021/01/09 08:35:39;;;;;;;60.30;35.78;;;;;;;1.10;90.21;99916.50;1771579;80;21894;-77
2021/01/09 08:38:46;;;;;;;62.17;35.63;;;;;;;1.10;90.05;99894.95;1784986;80;21291;-76
2021/01/09 08:41:54;;;;;;;81.72;42.03;;;;;;;1.12;90.08;99894.32;1785035;80;21193;-76
2021/01/09 08:45:01;;;;;;;85.87;46.02;;;;;;;1.18;90.20;99896.53;1783691;80;21288;-76
2021/01/09 08:48:06;;;;;;;77.47;44.03;;;;;;;1.22;90.11;99903.84;1785293;80;21173;-77
2021/01/09 08:51:18;;;;;;;88.97;48.73;;;;;;;1.23;89.92;99913.17;1784081;80;21299;-77
2021/01/09 08:54:23;;;;;;;111.10;58.33;;;;;;;1.23;90.05;99901.05;1783710;80;21318;-78
2021/01/09 08:57:29;;;;;;;115.80;59.58;;;;;;;1.26;90.00;99902.12;1784783;80;21973;-78
2021/01/09 09:00:35;;;;;;;123.02;62.70;;;;;;;1.27;89.82;99902.51;1784917;80;21185;-78
2021/01/09 09:03:43;;;;;;;135.03;65.08;;;;;;;1.25;89.72;99900.91;1770743;80;21327;-77
2021/01/09 09:06:52;;;;;;;122.80;61.58;;;;;;;1.21;89.60;99904.34;1770285;80;21216;-78
2021/01/09 09:09:58;;;;;;;126.25;64.12;;;;;;;1.17;89.79;99897.48;1784751;80;21295;-78
2021/01/09 09:13:28;;;;;;;139.47;71.12;;;;;;;1.14;89.91;99891.03;1783481;80;21200;-77
2021/01/09 09:16:33;;;;;;;;;;;;;;;1.11;89.98;99890.41;1787620;80;21295;-77
2021/01/09 09:19:45;;;;;;;138.20;68.35;;;;;;;1.02;89.59;99905.48;1785011;80;20320;-77
2021/01/09 09:22:51;;;;;;;147.82;73.35;;;;;;;0.94;89.28;99906.59;1783516;80;21295;-74
2021/01/09 09:26:18;;;;;;;151.50;79.25;;;;;;;0.92;89.79;99901.34;1783647;80;21873;-74
2021/01/09 09:29:24;;;;;;;111.88;61.40;;;;;;;0.93;90.09;99900.85;1784972;80;21331;-75
2021/01/09 09:32:32;;;;;;;102.65;57.08;;;;;;;0.94;90.12;99897.17;1784904;80;21153;-74
2021/01/09 09:35:39;;;;;;;97.47;55.45;;;;;;;0.94;90.23;99905.25;1785256;79;21236;-75
2021/01/09 09:38:47;;;;;;;71.55;46.02;;;;;;;0.96;90.26;99908.69;1783317;80;21178;-75
2021/01/09 09:42:07;;;;;;;69.45;40.55;;;;;;;1.04;90.48;99910.77;1784831;80;21200;-74
2021/01/09 09:45:17;;;;;;;58.20;37.65;;;;;;;1.07;90.21;99906.46;1785028;80;21188;-75
2021/01/09 09:48:22;;;;;;;64.22;41.28;;;;;;;1.04;89.71;99895.47;1785133;80;21283;-75
2021/01/09 09:51:28;;;;;;;58.13;38.23;;;;;;;1.04;89.71;99895.47;1784668;80;21755;-74
2021/01/09 09:54:38;;;;;;;56.08;34.88;;;;;;;1.08;89.81;99897.39;1783422;80;21263;-76
2021/01/09 09:57:43;;;;;;;52.20;32.48;;;;;;;1.16;89.79;99895.78;1784966;80;21172;-76
2021/01/09 10:00:52;;;;;;;49.65;30.60;;;;;;;1.26;89.66;99890.48;1785035;80;21291;-76
2021/01/09 10:03:58;;;;;;;44.05;28.67;;;;;;;1.33;88.89;99892.20;1784596;80;21850;-77
2021/01/09 10:07:05;;;;;;;49.35;29.52;;;;;;;1.35;88.11;99901.00;1784422;80;21315;-77
2021/01/09 10:10:26;;;;;;;46.13;31.73;;;;;;;1.34;87.69;99893.41;1784994;80;21822;-75
2021/01/09 10:13:37;;;;;;;43.10;29.15;;;;;;;1.39;87.72;99887.64;1784960;80;21216;-76
2021/01/09 10:16:43;;;;;;;46.18;30.68;;;;;;;1.50;88.12;99892.48;1785145;80;21303;-76
2021/01/09 10:19:49;;;;;;;42.95;28.77;;;;;;;1.59;88.11;99897.59;1785003;80;21299;-76
2021/01/09 10:22:55;;;;;;;42.48;28.60;;;;;;;1.58;86.36;99895.04;1783898;80;21323;-76
2021/01/09 10:26:00;;;;;;;41.55;27.52;;;;;;;1.54;85.24;99910.11;1778097;80;21782;-76
2021/01/09 10:29:07;;;;;;;38.08;25.80;;;;;;;1.53;85.25;99913.80;1771208;81;21185;-76
2021/01/09 10:32:12;;;;;;;44.73;27.27;;;;;;;1.58;85.82;99911.21;1771423;81;21236;-76
2021/01/09 10:35:19;;;;;;;40.75;28.75;;;;;;;1.64;85.37;99912.03;1770143;79;21319;-76
2021/01/09 10:38:25;;;;;;;40.38;28.32;;;;;;;1.68;84.34;99916.19;1770207;81;21328;-77
2021/01/09 10:41:31;;;;;;;39.67;25.65;;;;;;;1.71;84.81;99920.84;1771103;81;21291;-75
2021/01/09 10:44:37;;;;;;;35.48;23.47;;;;;;;1.77;83.81;99914.92;1770637;81;21712;-76
2021/01/09 10:47:43;;;;;;;37.45;25.72;;;;;;;1.83;83.71;99915.38;1771159;81;21276;-76
2021/01/09 10:50:52;;;;;;;41.23;25.48;;;;;;;1.89;83.28;99901.40;1762931;81;21300;-76
2021/01/09 10:53:58;;;;;;;37.17;24.05;;;;;;;2.00;83.76;99900.83;1769785;81;21839;-76
2021/01/09 10:57:03;;;;;;;37.00;24.87;;;;;;;2.11;83.87;99892.30;1769687;81;21213;-76
2021/01/09 11:00:08;;;;;;;36.68;23.25;;;;;;;2.12;83.17;99907.02;1769649;81;21299;-76
2021/01/09 11:03:13;;;;;;;37.33;24.07;;;;;;;2.08;82.60;99905.58;1771129;81;21289;-76
2021/01/09 11:06:27;;;;;;;38.95;25.23;;;;;;;2.10;83.52;99913.03;1769683;81;21866;-76
2021/01/09 11:09:34;;;;;;;31.42;21.93;;;;;;;2.17;83.59;99907.98;1771507;81;21272;-76
2021/01/09 11:12:40;;;;;;;33.98;22.62;;;;;;;2.17;82.69;99903.93;1771136;81;21162;-76
2021/01/09 11:15:53;;;;;;;35.50;22.75;;;;;;;2.10;81.25;99919.77;1770167;81;21326;-76
2021/01/09 11:18:58;;;;;;;31.42;21.65;;;;;;;2.01;80.76;99924.61;1771176;81;21190;-77
2021/01/09 11:22:04;;;;;;;33.90;22.30;;;;;;;1.94;81.11;99916.20;1771089;81;21835;-76
2021/01/09 11:25:09;;;;;;;31.35;22.40;;;;;;;1.93;81.38;99923.94;1770661;81;21355;-76
2021/01/09 11:28:15;;;;;;;32.20;20.57;;;;;;;1.91;81.22;99917.80;1770548;80;21320;-76
2021/01/09 11:31:20;;;;;;;31.17;20.55;;;;;;;1.89;80.90;99929.22;1771059;81;21280;-76
2021/01/09 11:34:25;;;;;;;35.92;23.25;;;;;;;1.88;81.06;99923.94;1771043;79;21323;-76
2021/01/09 11:37:34;;;;;;;31.42;23.40;;;;;;;1.88;81.57;99916.70;1769783;81;21989;-76
2021/01/09 11:40:40;;;;;;;33.92;22.95;;;;;;;1.87;81.78;99922.23;1769695;81;21284;-76
2021/01/09 11:43:48;;;;;;;34.63;23.20;;;;;;;1.86;81.94;99928.62;1771075;81;21287;-75
2021/01/09 11:46:55;;;;;;;31.62;21.10;;;;;;;1.84;82.55;99933.30;1771044;81;21272;-76
2021/01/09 11:50:00;;;;;;;27.20;19.10;;;;;;;1.82;82.14;99937.95;1771070;81;21812;-76
2021/01/09 11:53:07;;;;;;;33.08;21.37;;;;;;;1.78;81.42;99936.84;1771102;81;21834;-76
2021/01/09 11:56:13;;;;;;;30.02;19.37;;;;;;;1.74;80.57;99944.86;1769756;81;21331;-76
2021/01/09 11:59:18;;;;;;;26.82;18.30;;;;;;;1.75;80.74;99949.27;1769617;81;21338;-76
2021/01/09 12:02:24;;;;;;;32.05;21.30;;;;;;;1.77;81.22;99951.81;1771182;81;21175;-76
2021/01/09 12:05:30;;;;;;;34.15;20.77;;;;;;;1.82;81.82;99964.92;1770698;81;21824;-76
2021/01/09 12:08:35;;;;;;;28.45;18.98;;;;;;;1.84;81.34;99975.95;1771000;81;21316;-76
2021/01/09 12:11:40;;;;;;;27.17;17.62;;;;;;;1.86;80.64;99967.72;1771144;81;21296;-76
2021/01/09 12:14:45;;;;;;;22.50;15.45;;;;;;;1.87;80.81;99985.61;1771142;81;21887;-76
2021/01/09 12:17:50;;;;;;;22.67;14.83;;;;;;;1.87;79.05;99989.16;1769583;81;21284;-76
2021/01/09 12:20:56;;;;;;;21.85;12.78;;;;;;;1.85;77.83;99999.23;1771398;81;21730;-76
2021/01/09 12:24:01;;;;;;;17.35;11.38;;;;;;;1.84;76.24;100002.07;1770869;81;21205;-76
2021/01/09 12:27:09;;;;;;;16.05;10.75;;;;;;;1.83;74.44;100002.53;1769922;81;21311;-76
2021/01/09 12:30:16;;;;;;;13.25;10.53;;;;;;;1.86;74.94;99998.25;1771104;81;21645;-75
2021/01/09 12:33:22;;;;;;;15.18;10.10;;;;;;;1.91;74.88;100010.00;1771054;81;21185;-77
2021/01/09 12:36:27;;;;;;;15.38;10.65;;;;;;;1.90;74.41;100007.80;1770260;81;21197;-76
2021/01/09 12:39:33;;;;;;;22.52;11.08;;;;;;;1.86;73.46;100011.73;1770627;81;22476;-76
2021/01/09 12:42:38;;;;;;;18.02;10.78;;;;;;;1.81;73.94;100011.75;1771127;81;21307;-75
2021/01/09 12:45:42;;;;;;;15.93;11.25;;;;;;;1.72;73.56;100007.48;1770845;81;21854;-76
2021/01/09 12:48:49;;;;;;;17.80;11.08;;;;;;;1.66;74.18;100012.55;1770790;81;21362;-77
2021/01/09 12:51:56;;;;;;;16.75;11.38;;;;;;;1.62;75.38;100015.12;1771160;81;21285;-76
2021/01/09 12:55:04;;;;;;;19.53;12.17;;;;;;;1.48;74.97;100018.95;1770410;81;21312;-76
2021/01/09 12:58:09;;;;;;;15.13;11.10;;;;;;;1.48;74.97;100018.95;1770882;81;22518;-76
2021/01/09 13:01:15;;;;;;;14.78;10.80;;;;;;;1.43;75.17;100014.42;1770793;81;21190;-76
2021/01/09 13:04:22;;;;;;;17.20;11.18;;;;;;;1.39;75.31;100025.08;1770903;81;21311;-76
2021/01/09 13:07:29;;;;;;;15.25;10.90;;;;;;;1.39;74.83;100031.82;1769520;81;21918;-76
2021/01/09 13:10:33;;;;;;;17.05;11.97;;;;;;;1.37;73.92;100035.14;1770107;81;21376;-76
2021/01/09 13:13:39;;;;;;;21.35;12.25;;;;;;;1.35;74.08;100034.39;1771074;81;21735;-76
2021/01/09 13:16:50;;;;;;;19.95;13.13;;;;;;;1.35;74.27;100046.52;1770646;81;21218;-76
2021/01/09 13:19:58;;;;;;;17.32;12.35;;;;;;;1.34;74.47;100045.67;1764302;81;21181;-75
2021/01/09 13:23:03;;;;;;;21.80;13.05;;;;;;;1.33;74.73;100047.15;1771168;81;21194;-75
2021/01/09 13:26:12;;;;;;;19.07;13.40;;;;;;;1.32;75.21;100052.15;1770177;81;21316;-77
2021/01/09 13:29:19;;;;;;;19.07;12.85;;;;;;;1.29;75.16;100046.53;1770844;80;21305;-76
2021/01/09 13:32:25;;;;;;;19.02;13.00;;;;;;;1.27;75.09;100055.21;1771435;81;21343;-77
2021/01/09 13:35:31;;;;;;;16.05;11.03;;;;;;;1.24;75.10;100063.56;1770251;79;21355;-76
2021/01/09 13:38:38;;;;;;;17.23;11.93;;;;;;;1.19;75.03;100063.92;1771099;81;21178;-76
2021/01/09 13:41:43;;;;;;;19.98;12.58;;;;;;;1.15;75.13;100069.19;1769981;81;21382;-75
2021/01/09 13:44:49;;;;;;;19.57;13.43;;;;;;;1.12;75.27;100070.77;1771077;81;21831;-76
2021/01/09 13:47:56;;;;;;;18.77;12.13;;;;;;;1.09;75.48;100076.42;1770115;81;21728;-77
2021/01/09 13:51:01;;;;;;;18.52;12.47;;;;;;;1.05;75.71;100076.78;1771102;81;21296;-76
2021/01/09 13:54:08;;;;;;;17.55;11.55;;;;;;;1.01;75.99;100085.09;1771149;81;21825;-75
2021/01/09 13:57:14;;;;;;;17.15;12.05;;;;;;;0.98;76.31;100086.67;1769644;81;21217;-76
2021/01/09 14:00:21;;;;;;;16.42;11.08;;;;;;;0.95;76.61;100088.77;1771143;81;21296;-76
2021/01/09 14:03:27;;;;;;;15.25;10.10;;;;;;;0.93;76.83;100086.67;1771587;81;21292;-76
2021/01/09 14:06:26;;;;;;;16.02;10.63;;;;;;;0.91;77.07;100095.38;1770823;81;21380;-76
2021/01/09 14:09:33;;;;;;;17.95;10.80;;;;;;;0.88;77.27;100093.77;1769750;81;21205;-76
2021/01/09 14:12:39;;;;;;;15.72;10.80;;;;;;;0.86;77.27;100096.22;1769617;81;21202;-76
2021/01/09 14:15:46;;;;;;;15.98;11.00;;;;;;;0.81;77.26;100106.50;1769545;81;21339;-76
2021/01/09 14:18:52;;;;;;;17.87;11.93;;;;;;;0.73;77.36;100105.24;1769569;81;21335;-75
2021/01/09 14:22:00;;;;;;;18.10;11.22;;;;;;;0.66;77.48;100112.09;1770843;81;21331;-75
2021/01/09 14:25:06;;;;;;;18.80;12.50;;;;;;;0.60;77.63;100117.92;1770827;81;21835;-76
2021/01/09 14:28:11;;;;;;;16.65;11.75;;;;;;;0.54;77.82;100125.63;1769403;81;21867;-76
2021/01/09 14:31:18;;;;;;;17.90;11.78;;;;;;;0.49;77.89;100130.86;1778370;80;21350;-75
2021/01/09 14:34:25;;;;;;;15.85;10.68;;;;;;;0.44;78.04;100130.36;1769827;79;21354;-76